KFHU/FHU METAR and TAF weather

Enter ICAO airport designator
Station Type Date Time Source
KFHU METAR 2021/07/29 16:58 UTC NOAA

KFHU 291658Z AUTO 00000KT 10SM OVC150 25/15 A3018 RMK AO2 SLP147 T02540154


Station Type Date Time Source
KFHU Decoded METAR 2021/07/29 16:58 UTC NOAA

Fort Huachuca, Libby AAF Ft Huachuca, AZ, United States (KFHU) 46-98N 110-20W
Jul 29, 2021 - 12:58 PM EDT / 2021.07.29 1658 UTC
Wind: Calm:0
Visibility: 10 mile(s):0
Sky conditions: overcast
Temperature: 77.7 F (25.4 C)
Dew Point: 59.7 F (15.4 C)
Relative Humidity: 53%
Pressure (altimeter): 30.18 in. Hg (1022 hPa)
ob: KFHU 291658Z AUTO 00000KT 10SM OVC150 25/15 A3018 RMK AO2 SLP147 T02540154
cycle: 17

Station Type Date Time Source
KFHU TAF 2021/07/29 22:53 UTC NOAA

TAF KFHU 282200Z 2822/3004 33009KT 9999 VCTS SCT060CB BKN100 QNH3017INS
TEMPO 2823/2907 VRB20G35KT 9000 -TSRA BKN060CB OVC100
BECMG 2906/2907 VCTS SCT060CB BKN100 QNH3015INS
TEMPO 2907/2910 VRB15G25KT 9000 -TSRA BKN060CB BKN100
BECMG 2909/2910 33009KT 9999 NSW FEW060 BKN100 QNH3014INS
BECMG 2911/2912 06009KT 9999 FEW060 BKN100 QNH3015INS
BECMG 2914/2915 06009KT 9999 FEW060 FEW100 QNH3017INS
BECMG 2920/2921 09009KT 9999 VCTS SCT060CB BKN100 QNH3013INS
TEMPO 2922/3004 VRB20G30KT TSRA BKN060CB OVC100 TX32/2823Z TN20/2913Z

Example: see airport list